Cala Pula — IBID — position and weather

sailwx.info

Track history (hours):
 
Tides and Currents Weather Stations Pressure Air Temp Water Temp Dewpoint Dewpoint Depression Visibility Wind Speed Wind Dir Waves Ship Positions

Cala Pula

Last reported at 2017-Feb-20 02:33 UTC. Time now 2017-Feb-23 20:46 UTC.
Position N 36°02' W 005°21'.

Length 189 m; draft 5.9 m.

Type: Cargo ship. MMSI: 247585000.

Date/timePositionNaut miles runAvg speedWind from/ knotsBaromVisibWave heightAir tempDewpointWater temp
2017-Feb-20 02:33N 36°02' W 005°21'23421.0
2017-Feb-19 15:25N 37°25' W 000°49'16222.0
2017-Feb-19 08:03N 39°22' E 001°35'1321.6
2017-Feb-19 07:26N 39°31' E 001°47'2021.9
2017-Feb-19 06:32N 39°44' E 002°06'2222.2
2017-Feb-19 05:33N 39°59' E 002°27'2222.2
2017-Feb-19 04:33N 40°14' E 002°48'2221.7
2017-Feb-19 03:33N 40°29' E 003°10'24722.2
2017-Feb-18 16:26N 43°14' E 007°16'2022.7
2017-Feb-18 15:33N 43°28' E 007°36'6120.5
2017-Feb-18 12:33N 44°16' E 008°29'1 1.0
2017-Feb-18 11:33N 44°16' E 008°27'0 0.0
2017-Feb-18 10:33N 44°16' E 008°27'0 0.0
2017-Feb-18 09:33N 44°16' E 008°27'0 0.0
2017-Feb-18 08:33N 44°16' E 008°27'0 0.0
2017-Feb-18 07:33N 44°16' E 008°27'0 0.0
2017-Feb-18 06:33N 44°16' E 008°27'0 0.0
2017-Feb-18 05:33N 44°16' E 008°27'0 0.0
2017-Feb-18 04:33N 44°16' E 008°27'0 0.0
2017-Feb-18 03:33N 44°16' E 008°27'0 0.0
2017-Feb-18 02:33N 44°16' E 008°27'0 0.0
2017-Feb-18 01:33N 44°16' E 008°27'0 0.0
2017-Feb-18 00:33N 44°16' E 008°27'0 0.0
2017-Feb-17 23:33N 44°16' E 008°27'0 0.0
2017-Feb-17 22:33N 44°16' E 008°27'0 0.0
2017-Feb-17 21:33N 44°16' E 008°27'0 0.0
2017-Feb-17 20:09N 44°16' E 008°27'0 0.0
2017-Feb-17 19:33N 44°16' E 008°27'0 0.0
2017-Feb-17 18:33N 44°16' E 008°27'0 0.0
2017-Feb-17 17:33N 44°16' E 008°27'0 0.0
2017-Feb-17 16:33N 44°16' E 008°27'0 0.0
2017-Feb-17 15:33N 44°16' E 008°27'0 0.0
2017-Feb-17 14:33N 44°16' E 008°27'0 0.0
2017-Feb-17 13:33N 44°16' E 008°27'0 0.0
2017-Feb-17 12:27N 44°16' E 008°27'0 0.0
2017-Feb-17 11:32N 44°16' E 008°27'0 0.0
2017-Feb-17 08:32N 44°16' E 008°27'0 0.3
2017-Feb-17 07:33N 44°16' E 008°27'9 9.5
2017-Feb-17 06:33N 44°07' E 008°25'4420.5
2017-Feb-17 04:25N 43°35' E 007°44'1820.9
2017-Feb-17 03:33N 43°23' E 007°24'51911.2
2017-Feb-15 05:19N 37°22' W 000°46'23720.2
2017-Feb-14 17:34N 35°58' W 005°22'24315.8
2017-Feb-14 02:12N 38°26' W 009°25'1218.7
2017-Feb-14 01:33N 38°38' W 009°22'1010.0
2017-Feb-14 00:34N 38°42' W 009°10'2 0.2
2017-Feb-13 14:04N 38°42' W 009°07'510.0
2017-Feb-13 13:33N 38°41' W 009°14'8 8.4
2017-Feb-13 12:33N 38°36' W 009°23'1 0.9
2017-Feb-13 11:34N 38°35' W 009°23'1 0.9
2017-Feb-13 10:34N 38°36' W 009°24'9 8.9
2017-Feb-13 09:33N 38°33' W 009°35'2020.1
2017-Feb-13 08:33N 38°30' W 010°00'85018.0
2017-Feb-11 09:18N 39°22' W 028°11'1419.6
2017-Feb-11 08:33N 39°18' W 028°29'2019.6
2017-Feb-11 07:34N 39°13' W 028°54'2019.9
2017-Feb-11 06:34N 39°08' W 029°19'2019.9
2017-Feb-11 05:33N 39°03' W 029°44'2019.7
2017-Feb-11 04:33N 38°56' W 030°07'2119.9
2017-Feb-11 03:30N 38°45' W 030°30'  
Track history (hours):
 
Tides and Currents Weather Stations Pressure Air Temp Water Temp Dewpoint Dewpoint Depression Visibility Wind Speed Wind Dir Waves Ship Positions

Cala Pula

Last reported at 2017-Feb-20 02:33 UTC. Time now 2017-Feb-23 20:46 UTC.
Position N 36°02' W 005°21'.

Length 189 m; draft 5.9 m.

Type: Cargo ship. MMSI: 247585000.

Date/timePositionNaut miles runAvg speedWind from/ knotsBaromVisibWave heightAir tempDewpointWater temp
2017-Feb-20 02:33N 36°02' W 005°21'23421.0
2017-Feb-19 15:25N 37°25' W 000°49'16222.0
2017-Feb-19 08:03N 39°22' E 001°35'1321.6
2017-Feb-19 07:26N 39°31' E 001°47'2021.9
2017-Feb-19 06:32N 39°44' E 002°06'2222.2
2017-Feb-19 05:33N 39°59' E 002°27'2222.2
2017-Feb-19 04:33N 40°14' E 002°48'2221.7
2017-Feb-19 03:33N 40°29' E 003°10'24722.2
2017-Feb-18 16:26N 43°14' E 007°16'2022.7
2017-Feb-18 15:33N 43°28' E 007°36'6120.5
2017-Feb-18 12:33N 44°16' E 008°29'1 1.0
2017-Feb-18 11:33N 44°16' E 008°27'0 0.0
2017-Feb-18 10:33N 44°16' E 008°27'0 0.0
2017-Feb-18 09:33N 44°16' E 008°27'0 0.0
2017-Feb-18 08:33N 44°16' E 008°27'0 0.0
2017-Feb-18 07:33N 44°16' E 008°27'0 0.0
2017-Feb-18 06:33N 44°16' E 008°27'0 0.0
2017-Feb-18 05:33N 44°16' E 008°27'0 0.0
2017-Feb-18 04:33N 44°16' E 008°27'0 0.0
2017-Feb-18 03:33N 44°16' E 008°27'0 0.0
2017-Feb-18 02:33N 44°16' E 008°27'0 0.0
2017-Feb-18 01:33N 44°16' E 008°27'0 0.0
2017-Feb-18 00:33N 44°16' E 008°27'0 0.0
2017-Feb-17 23:33N 44°16' E 008°27'0 0.0
2017-Feb-17 22:33N 44°16' E 008°27'0 0.0
2017-Feb-17 21:33N 44°16' E 008°27'0 0.0
2017-Feb-17 20:09N 44°16' E 008°27'0 0.0
2017-Feb-17 19:33N 44°16' E 008°27'0 0.0
2017-Feb-17 18:33N 44°16' E 008°27'0 0.0
2017-Feb-17 17:33N 44°16' E 008°27'0 0.0
2017-Feb-17 16:33N 44°16' E 008°27'0 0.0
2017-Feb-17 15:33N 44°16' E 008°27'0 0.0
2017-Feb-17 14:33N 44°16' E 008°27'0 0.0
2017-Feb-17 13:33N 44°16' E 008°27'0 0.0
2017-Feb-17 12:27N 44°16' E 008°27'0 0.0
2017-Feb-17 11:32N 44°16' E 008°27'0 0.0
2017-Feb-17 08:32N 44°16' E 008°27'0 0.3
2017-Feb-17 07:33N 44°16' E 008°27'9 9.5
2017-Feb-17 06:33N 44°07' E 008°25'4420.5
2017-Feb-17 04:25N 43°35' E 007°44'1820.9
2017-Feb-17 03:33N 43°23' E 007°24'51911.2
2017-Feb-15 05:19N 37°22' W 000°46'23720.2
2017-Feb-14 17:34N 35°58' W 005°22'24315.8
2017-Feb-14 02:12N 38°26' W 009°25'1218.7
2017-Feb-14 01:33N 38°38' W 009°22'1010.0
2017-Feb-14 00:34N 38°42' W 009°10'2 0.2
2017-Feb-13 14:04N 38°42' W 009°07'510.0
2017-Feb-13 13:33N 38°41' W 009°14'8 8.4
2017-Feb-13 12:33N 38°36' W 009°23'1 0.9
2017-Feb-13 11:34N 38°35' W 009°23'1 0.9
2017-Feb-13 10:34N 38°36' W 009°24'9 8.9
2017-Feb-13 09:33N 38°33' W 009°35'2020.1
2017-Feb-13 08:33N 38°30' W 010°00'85018.0
2017-Feb-11 09:18N 39°22' W 028°11'1419.6
2017-Feb-11 08:33N 39°18' W 028°29'2019.6
2017-Feb-11 07:34N 39°13' W 028°54'2019.9
2017-Feb-11 06:34N 39°08' W 029°19'2019.9
2017-Feb-11 05:33N 39°03' W 029°44'2019.7
2017-Feb-11 04:33N 38°56' W 030°07'2119.9
2017-Feb-11 03:30N 38°45' W 030°30'  

Dump ship's entire track history